Deltona, FL (32725)

5:25 PM EDT on October 23, 2014 (GMT -0400)
SW Deltona | Change Station
CLOSE
Current Station
Personal Weather Station
Location: Deltona, FL
Elevation: 95 ft
Nearby Weather Stations

Elev 95 ft 28.89 °N, 81.24 °W | Updated 3 seconds ago

Clear
Clear
81.0 °F
Feels Like 81 °F
N
2.2
Wind Variable Wind from NE
Gusts 6.7 mph

Today
High -- | Low -- °F
--% Chance of Precip.
Yesterday
High -- | Low -- °F
Precip. -- in
7:31 AM 6:47 PM
Waning Crescent, 0% visible
Pressure 29.94 in
Visibility 10.0 miles
Clouds Clear
Heat Index 81 °F
Dew Point 58 °F
Humidity 46%
Rainfall 0.00 in
Snow Depth Not available.
UV 2 out of 12
Pollen 5.80 out of 12
Air Quality Not available.
Flu Activity Local Activity
METAR KSFB 232053Z 07008KT 10SM CLR 26/13 A2994 RMK AO2 SLP138 T02560128 56013

More Conditions Fewer Conditions

Pressure 29.94 in
Visibility 10.0 miles
Clouds Clear
Heat Index 81 °F
Dew Point 58 °F
Humidity 46%
Rainfall 0.00 in
Snow Depth Not available.
UV 2 out of 12
Pollen 5.80 out of 12
Air Quality Not available.
Flu Activity Local Activity
METAR KSFB 232053Z 07008KT 10SM CLR 26/13 A2994 RMK AO2 SLP138 T02560128 56013

More Conditions Fewer Conditions

10-Day Weather Forecast

Almanac

Astronomy

Oct. 23, 2014 Rise Set
Actual Time 7:31 AM EDT 6:47 PM EDT
Civil Twilight 7:07 AM EDT 7:11 PM EDT
Nautical Twilight 6:39 AM EDT 7:38 PM EDT
Astronomical Twilight 6:11 AM EDT 8:06 PM EDT
Moon 7:11 AM EDT 6:47 PM EDT
Length of Visible Light 12h 04m
Length of Day
11h 15m
Tomorrow will be 1m 35s shorter.
Waning Crescent, 0% of the Moon is Illuminated
Today
Waning Crescent
Oct 23
New
Oct 30
First Quarter
Nov 6
Full
Nov 14
Last Quarter

Today's Extremes

State Highs State Lows

Community

WunderPhotos

Upload Photos

1,764,374 photos uploaded!

WunderBlogs® & News

Nearby

Snow Depth

Station Depth Elevation
No new snow has been reported.

Earthquake Activity

City Distance Mag. Time & Date
No recent earthquake activity has been reported nearby.
Minimum magnitude displayed is 2.5.

Coastal Water Temperatures

Place Temperature
Trident Pier, FL 80.1 °F
Mayport (Bar Pilots Dock), FL 75.9 °F
Fernandina Beach, FL 73.0 °F
McKay Bay Entrance, FL 80.1 °F

Nearby Weather Stations